Terminal Aerodrome Forecast
Issued by NWS

Home | Current Version | Previous Version | Text Only | Print | Product List | Glossary On
Versions: 1 2 3 4 5 6 7 8 9 10 11 12 13 14
000
FTAK31 PAFA 311740
TAFATA
TAF
PATA 311740Z 3118/0118 06003KT P6SM BKN060
     FM312000 07012KT P6SM SCT060 BKN120
     FM010400 07009KT P6SM SCT120=

USA.gov is the U.S. government's official web portal to all federal, state and local government web resources and services.